Main page
METAR-TAF:

METAR-TAF

Airports :

Rock Springs–Sweetwater County Airport

Rock Springs, Wyoming, United States

latitude: 41-35-39N, longitude: 109-03-55W, elevation: 6757 ft

Current weather observation

The report was made 33 minutes ago, at 14:54 UTC
Temperature 36°F
Humidity 51%
Pressure 30.29 in. Hg
Visibility: 10 miles
Clear sky

METAR: KRKS 211454Z AUTO 10SM CLR 02/M07 A3029 RMK AO2 SLP247 T00221072 51005

Time: 09:27 (15:27 UTC)

Forecast

The report was made 4 hours and 7 minutes ago, at 11:20 UTC
Forecast valid from 21 at 12 UTC to 22 at 12 UTC
Wind 12 mph from the Northeast
Visibility: 6 miles
Few clouds at a height of 20000 ft
From 21 at 2000 UTC
Wind 17 mph from the West with gusts up to 29 mph
Visibility: 6 miles
Scattered clouds at a height of 15000 ft
From 22 at 0200 UTC
Wind 12 mph from the Southwest
Visibility: 6 miles
Scattered clouds at a height of 10000 ft

TAF: KRKS 211120Z 2112/2212 05010KT P6SM FEW200 FM212000 26015G25KT P6SM SCT150 FM220200 23010KT P6SM SCT100

Weather observations and forecasts of more than 4000 airports (METAR and TAF reports).

The available stations are represented by yellow and red dots on the map.

Hover mouse over dot to see the name of the station.

Then click to see weather observations and forecasts.

To change the map : click on the green buttons with a black cross to zoom in, on the green button with a dash to zoom out, or on the green arrows for adjacent maps.


METAR-TAF: